Bilbao, Spain
Current Conditions -  °F | °C
As of 10:00 PM on Thursday 20 Nov 2014 (Local Time) from LEBB Reporting Station
Clear Clear  
Wind Chill: 66°   Ceiling: Unl
Heat Index: 66°   Visibility: 6mi
Dew Point: 46°   Wind: 9mph
Humidity: 49%   Direction: NA
Pressure: 30.03"   Gusts: NA
Location:  43.26°N, 2.92°W
Report Text: LEBB 202100Z VRB08KT CAVOK 19/08 Q1017 NOSIG
Loading
Personal Weather Stations






























Interactive Weather Map New forecast layout! Learn more

10-Day Weather Forecast

Advertisements
Track Severe Weather on mobile